createdAt,value
2023-04-11T00:01:06.082Z,62.55
2023-04-11T00:03:32.376Z,62.58
2023-04-11T00:05:58.554Z,62.59
2023-04-11T00:08:24.685Z,62.54
2023-04-11T00:10:50.793Z,62.49
2023-04-11T00:13:16.890Z,62.47
2023-04-11T00:15:42.990Z,62.41
2023-04-11T00:18:09.093Z,62.60
2023-04-11T00:20:35.201Z,62.52
2023-04-11T00:23:01.321Z,62.63
2023-04-11T00:25:27.425Z,62.43
2023-04-11T00:27:53.530Z,62.29
2023-04-11T00:30:19.652Z,62.48
2023-04-11T00:32:45.810Z,62.43
2023-04-11T00:35:11.947Z,62.46
2023-04-11T00:37:38.054Z,62.39
2023-04-11T00:40:04.137Z,62.47
2023-04-11T00:42:30.232Z,62.46
2023-04-11T00:44:56.348Z,62.44
2023-04-11T00:47:22.479Z,62.45
2023-04-11T00:49:48.601Z,62.30
2023-04-11T00:52:14.710Z,62.31
2023-04-11T00:54:40.806Z,62.36
2023-04-11T00:57:06.923Z,62.30
2023-04-11T00:59:33.088Z,62.43
2023-04-11T01:01:59.328Z,62.33
2023-04-11T01:04:25.471Z,62.25
2023-04-11T01:06:51.577Z,62.22
2023-04-11T01:09:17.693Z,62.34
2023-04-11T01:11:43.795Z,62.51
2023-04-11T01:14:09.914Z,62.20
2023-04-11T01:16:36.064Z,62.33
2023-04-11T01:19:02.189Z,62.38
2023-04-11T01:21:28.287Z,62.42
2023-04-11T01:23:54.376Z,62.38
2023-04-11T01:26:20.464Z,62.26
2023-04-11T01:28:46.575Z,62.53
2023-04-11T01:31:12.704Z,62.26
2023-04-11T01:33:38.864Z,62.40
2023-04-11T01:36:05.006Z,62.29
2023-04-11T01:38:31.175Z,62.29
2023-04-11T01:40:57.545Z,62.29
2023-04-11T01:43:23.738Z,62.26
2023-04-11T01:45:49.832Z,62.38
2023-04-11T01:48:16.084Z,62.12
2023-04-11T01:50:42.671Z,62.16
2023-04-11T01:53:08.774Z,62.15
2023-04-11T01:55:34.885Z,62.05
2023-04-11T01:58:01.061Z,62.28
2023-04-11T02:00:27.321Z,62.00
2023-04-11T02:02:53.512Z,62.05
2023-04-11T02:05:19.822Z,62.22
2023-04-11T02:07:45.913Z,62.16
2023-04-11T02:10:12.015Z,62.23
2023-04-11T02:12:38.130Z,62.21
2023-04-11T02:15:04.225Z,62.15
2023-04-11T02:17:30.389Z,62.08
2023-04-11T02:19:56.519Z,62.15
2023-04-11T02:22:22.605Z,61.94
2023-04-11T02:24:48.706Z,62.16
2023-04-11T02:27:14.822Z,62.16
2023-04-11T02:29:40.948Z,62.09
2023-04-11T02:32:07.170Z,61.93
2023-04-11T02:34:33.414Z,61.93
2023-04-11T02:36:59.504Z,62.10
2023-04-11T02:39:25.597Z,62.04
2023-04-11T02:41:51.733Z,62.09
2023-04-11T02:44:17.818Z,62.15
2023-04-11T02:46:43.947Z,61.92
2023-04-11T02:49:10.101Z,62.14
2023-04-11T02:51:36.186Z,62.00
2023-04-11T02:54:02.301Z,61.87
2023-04-11T02:56:28.438Z,61.91
2023-04-11T02:58:54.773Z,62.06
2023-04-11T03:01:21.070Z,62.03
2023-04-11T03:03:47.358Z,62.05
2023-04-11T03:06:13.516Z,61.81
2023-04-11T03:08:39.624Z,61.99
2023-04-11T03:11:05.734Z,61.99
2023-04-11T03:13:31.843Z,61.92
2023-04-11T03:15:57.965Z,61.82
2023-04-11T03:18:24.130Z,61.97
2023-04-11T03:20:50.222Z,61.88
2023-04-11T03:23:16.321Z,61.99
2023-04-11T03:25:42.454Z,61.71
2023-04-11T03:28:08.545Z,61.79
2023-04-11T03:30:34.629Z,61.77
2023-04-11T03:33:00.876Z,61.90
2023-04-11T03:35:27.087Z,61.85
2023-04-11T03:37:53.191Z,61.84
2023-04-11T03:40:19.295Z,61.71
2023-04-11T03:42:45.381Z,61.80
2023-04-11T03:45:11.480Z,61.60
2023-04-11T03:47:37.619Z,61.75
2023-04-11T03:50:03.725Z,61.87
2023-04-11T03:52:29.837Z,61.73
2023-04-11T03:54:55.964Z,61.73
2023-04-11T03:57:22.051Z,61.80
2023-04-11T03:59:48.137Z,61.82
2023-04-11T04:02:15.116Z,61.83
2023-04-11T04:04:41.402Z,61.85
2023-04-11T04:07:07.579Z,61.85
2023-04-11T04:09:33.697Z,61.73
2023-04-11T04:11:59.802Z,61.59
2023-04-11T04:14:25.891Z,61.72
2023-04-11T04:16:52.121Z,61.77
2023-04-11T04:19:18.346Z,61.67
2023-04-11T04:21:44.435Z,61.63
2023-04-11T04:24:10.565Z,61.63
2023-04-11T04:26:36.669Z,61.56
2023-04-11T04:29:02.765Z,61.47
2023-04-11T04:31:28.939Z,61.64
2023-04-11T04:33:55.246Z,61.60
2023-04-11T04:36:21.787Z,61.56
2023-04-11T04:38:47.914Z,61.47
2023-04-11T04:41:14.001Z,61.58
2023-04-11T04:43:40.085Z,61.39
2023-04-11T04:46:06.210Z,61.58
2023-04-11T04:48:32.319Z,61.45
2023-04-11T04:50:58.405Z,61.49
2023-04-11T04:53:24.564Z,61.40
2023-04-11T04:55:50.667Z,61.43
2023-04-11T04:58:16.772Z,61.56
2023-04-11T05:00:42.872Z,61.50
2023-04-11T05:03:09.088Z,61.38
2023-04-11T05:05:35.297Z,61.42
2023-04-11T05:08:01.576Z,61.53
2023-04-11T05:10:27.662Z,61.48
2023-04-11T05:12:53.771Z,61.54
2023-04-11T05:15:19.873Z,61.45
2023-04-11T05:17:45.986Z,61.47
2023-04-11T05:20:12.130Z,61.36
2023-04-11T05:22:38.248Z,61.36
2023-04-11T05:25:04.348Z,61.46
2023-04-11T05:27:30.448Z,61.42
2023-04-11T05:29:56.553Z,61.44
2023-04-11T05:32:22.674Z,61.21
2023-04-11T05:34:48.786Z,60.94
2023-04-11T05:37:14.896Z,61.22
2023-04-11T05:39:40.995Z,61.34
2023-04-11T05:42:08.081Z,61.32
2023-04-11T05:44:34.246Z,61.14
2023-04-11T05:47:00.327Z,61.31
2023-04-11T05:49:26.423Z,61.14
2023-04-11T05:51:52.543Z,61.26
2023-04-11T05:54:18.641Z,61.14
2023-04-11T05:56:44.730Z,61.09
2023-04-11T05:59:10.844Z,61.05
2023-04-11T06:01:36.961Z,61.03
2023-04-11T06:04:03.352Z,61.09
2023-04-11T06:06:29.811Z,61.12
2023-04-11T06:08:56.030Z,61.20
2023-04-11T06:11:22.115Z,60.97
2023-04-11T06:13:48.755Z,60.96
2023-04-11T06:16:14.922Z,61.11
2023-04-11T06:18:41.102Z,60.99
2023-04-11T06:21:07.258Z,61.04
2023-04-11T06:23:33.358Z,60.81
2023-04-11T06:25:59.455Z,60.76
2023-04-11T06:28:25.572Z,61.00
2023-04-11T06:30:51.699Z,60.87
2023-04-11T06:33:17.787Z,60.98
2023-04-11T06:35:43.908Z,60.98
2023-04-11T06:38:10.021Z,60.90
2023-04-11T06:40:36.113Z,60.86
2023-04-11T06:43:02.260Z,60.93
2023-04-11T06:45:28.380Z,60.81
2023-04-11T06:47:54.537Z,60.73
2023-04-11T06:50:20.683Z,60.95
2023-04-11T06:52:46.784Z,60.79
2023-04-11T06:55:12.883Z,60.73
2023-04-11T06:57:38.985Z,60.62
2023-04-11T07:00:05.073Z,60.64
2023-04-11T07:02:31.354Z,60.71
2023-04-11T07:04:57.585Z,60.77
2023-04-11T07:07:23.757Z,60.54
2023-04-11T07:09:49.860Z,60.42
2023-04-11T07:12:15.979Z,60.46
2023-04-11T07:14:42.099Z,60.54
2023-04-11T07:17:08.190Z,60.54
2023-04-11T07:19:34.289Z,60.56
2023-04-11T07:22:00.545Z,60.51
2023-04-11T07:24:26.692Z,60.39
2023-04-11T07:26:52.802Z,60.38
2023-04-11T07:29:18.920Z,60.41
2023-04-11T07:31:45.203Z,60.24
2023-04-11T07:34:11.441Z,60.43
2023-04-11T07:36:37.526Z,60.11
2023-04-11T07:39:03.609Z,60.31
2023-04-11T07:41:29.724Z,60.03
2023-04-11T07:43:55.988Z,60.10
2023-04-11T07:46:22.251Z,60.00
2023-04-11T07:48:48.371Z,60.15
2023-04-11T07:51:14.498Z,60.12
2023-04-11T07:53:40.601Z,60.06
2023-04-11T07:56:06.743Z,59.93
2023-04-11T07:58:32.828Z,59.85
2023-04-11T08:00:58.913Z,59.89
2023-04-11T08:03:25.205Z,60.04
2023-04-11T08:05:51.432Z,59.87
2023-04-11T08:08:17.535Z,59.94
2023-04-11T08:10:43.942Z,59.94
2023-04-11T08:13:10.101Z,59.91
2023-04-11T08:15:36.192Z,59.93
2023-04-11T08:18:02.868Z,59.98
2023-04-11T08:20:28.972Z,59.99
2023-04-11T08:22:55.078Z,59.78
2023-04-11T08:25:21.191Z,59.76
2023-04-11T08:27:47.302Z,59.91
2023-04-11T08:30:13.425Z,59.56
2023-04-11T08:32:39.595Z,59.47
2023-04-11T08:35:05.851Z,59.65
2023-04-11T08:37:31.959Z,59.67
2023-04-11T08:39:58.082Z,59.44
2023-04-11T08:42:24.170Z,59.57
2023-04-11T08:44:50.272Z,59.55
2023-04-11T08:47:16.397Z,59.53
2023-04-11T08:49:42.490Z,59.46
2023-04-11T08:52:08.569Z,59.53
2023-04-11T08:54:34.688Z,59.55
2023-04-11T08:57:00.789Z,59.75
2023-04-11T08:59:26.913Z,59.52
2023-04-11T09:01:53.260Z,59.68
2023-04-11T09:04:19.510Z,59.57
2023-04-11T09:06:45.601Z,59.55
2023-04-11T09:09:11.718Z,59.65
2023-04-11T09:11:37.816Z,59.51
2023-04-11T09:14:03.913Z,59.50
2023-04-11T09:16:30.062Z,59.52
2023-04-11T09:18:56.395Z,59.37
2023-04-11T09:21:22.743Z,59.30
2023-04-11T09:23:48.983Z,59.31
2023-04-11T09:26:15.107Z,59.29
2023-04-11T09:28:41.225Z,59.18
2023-04-11T09:31:07.407Z,59.39
2023-04-11T09:33:33.559Z,59.37
2023-04-11T09:35:59.652Z,59.36
2023-04-11T09:38:25.786Z,59.00
2023-04-11T09:40:51.889Z,59.25
2023-04-11T09:43:20.280Z,59.24
2023-04-11T09:45:54.161Z,59.25
2023-04-11T09:48:22.125Z,59.05
2023-04-11T09:50:52.933Z,59.03
2023-04-11T09:53:19.073Z,58.99
2023-04-11T09:55:45.322Z,59.02
2023-04-11T09:58:11.497Z,58.81
2023-04-11T10:00:37.604Z,58.99
2023-04-11T10:03:03.927Z,58.84
2023-04-11T10:05:30.186Z,58.69
2023-04-11T10:07:56.270Z,58.82
2023-04-11T10:10:22.373Z,58.69
2023-04-11T10:12:48.483Z,58.61
2023-04-11T10:15:14.577Z,58.77
2023-04-11T10:17:40.730Z,58.66
2023-04-11T10:20:06.905Z,58.55
2023-04-11T10:22:32.996Z,58.49
2023-04-11T10:24:59.086Z,58.44
2023-04-11T10:27:25.216Z,58.48
2023-04-11T10:29:51.856Z,58.36
2023-04-11T10:32:18.114Z,58.54
2023-04-11T10:34:44.223Z,58.26
2023-04-11T10:37:10.342Z,58.40
2023-04-11T10:39:36.437Z,58.46
2023-04-11T10:42:02.547Z,58.54
2023-04-11T10:44:28.665Z,58.49
2023-04-11T10:46:54.836Z,58.30
2023-04-11T10:49:21.021Z,58.32
2023-04-11T10:51:47.106Z,58.24
2023-04-11T10:54:13.201Z,58.33
2023-04-11T10:56:39.320Z,58.47
2023-04-11T10:59:05.412Z,58.15
2023-04-11T11:01:37.555Z,58.20
2023-04-11T11:04:09.986Z,58.33
2023-04-11T11:06:46.037Z,58.14
2023-04-11T11:09:13.188Z,58.19
2023-04-11T11:11:39.288Z,58.17
2023-04-11T11:14:05.392Z,58.21
2023-04-11T11:16:31.547Z,58.15
2023-04-11T11:18:57.764Z,58.14
2023-04-11T11:21:27.891Z,58.09
2023-04-11T11:23:54.902Z,58.08
2023-04-11T11:26:21.246Z,58.05
2023-04-11T11:28:47.340Z,58.09
2023-04-11T11:31:13.506Z,58.04
2023-04-11T11:33:39.596Z,58.17
2023-04-11T11:36:05.694Z,57.98
2023-04-11T11:38:31.797Z,58.17
2023-04-11T11:40:57.890Z,57.90
2023-04-11T11:43:23.966Z,57.67
2023-04-11T11:45:50.130Z,58.03
2023-04-11T11:48:16.260Z,57.93
2023-04-11T11:50:42.362Z,57.99
2023-04-11T11:53:08.526Z,57.85
2023-04-11T11:55:34.616Z,57.78
2023-04-11T11:58:00.732Z,57.85
2023-04-11T12:00:26.855Z,57.92
2023-04-11T12:02:53.223Z,57.88
2023-04-11T12:05:19.469Z,57.98
2023-04-11T12:07:45.637Z,57.84
2023-04-11T12:10:11.979Z,57.82
2023-04-11T12:12:38.196Z,57.94
2023-04-11T12:15:04.318Z,57.74
2023-04-11T12:17:30.459Z,58.07
2023-04-11T12:19:56.559Z,57.85
2023-04-11T12:22:22.671Z,57.98
2023-04-11T12:24:48.778Z,57.84
2023-04-11T12:27:14.909Z,57.64
2023-04-11T12:29:41.147Z,57.67
2023-04-11T12:32:07.259Z,57.85
2023-04-11T12:34:33.345Z,57.74
2023-04-11T12:36:59.468Z,57.65
2023-04-11T12:39:25.599Z,57.78
2023-04-11T12:41:51.738Z,57.61
2023-04-11T12:44:17.871Z,57.72
2023-04-11T12:46:44.008Z,57.78
2023-04-11T12:49:10.140Z,57.62
2023-04-11T12:51:36.268Z,57.74
2023-04-11T12:54:02.418Z,57.79
2023-04-11T12:56:28.547Z,57.50
2023-04-11T12:58:54.809Z,57.67
2023-04-11T13:01:20.992Z,57.51
2023-04-11T13:03:47.261Z,57.62
2023-04-11T13:06:13.504Z,57.59
2023-04-11T13:08:39.613Z,57.51
2023-04-11T13:11:05.711Z,57.62
2023-04-11T13:13:31.836Z,57.63
2023-04-11T13:15:58.030Z,57.52
2023-04-11T13:18:24.133Z,57.87
2023-04-11T13:20:50.246Z,57.53
2023-04-11T13:23:17.380Z,57.50
2023-04-11T13:25:43.694Z,57.66
2023-04-11T13:28:11.351Z,57.67
2023-04-11T13:30:37.433Z,57.57
2023-04-11T13:33:03.523Z,57.47
2023-04-11T13:35:29.751Z,57.70
2023-04-11T13:37:55.850Z,57.45
2023-04-11T13:40:22.112Z,57.65
2023-04-11T13:42:48.230Z,57.58
2023-04-11T13:45:14.324Z,57.47
2023-04-11T13:47:40.539Z,57.40
2023-04-11T13:50:06.722Z,57.56
2023-04-11T13:52:32.849Z,57.62
2023-04-11T13:54:58.949Z,57.51
2023-04-11T13:57:25.068Z,57.44
2023-04-11T13:59:51.197Z,57.45
2023-04-11T14:02:17.336Z,57.47
2023-04-11T14:04:43.471Z,57.47
2023-04-11T14:07:09.578Z,57.48
2023-04-11T14:09:35.683Z,57.42
2023-04-11T14:12:01.802Z,57.40
2023-04-11T14:14:27.894Z,57.47
2023-04-11T14:16:54.097Z,57.37
2023-04-11T14:19:20.303Z,57.34
2023-04-11T14:21:46.398Z,57.24
2023-04-11T14:24:12.510Z,57.25
2023-04-11T14:26:38.637Z,57.36
2023-04-11T14:29:04.813Z,57.23
2023-04-11T14:31:31.002Z,57.36
2023-04-11T14:33:57.525Z,57.43
2023-04-11T14:36:23.969Z,57.29
2023-04-11T14:38:50.132Z,57.23
2023-04-11T14:41:16.302Z,57.40
2023-04-11T14:43:42.398Z,57.18
2023-04-11T14:46:08.547Z,57.24
2023-04-11T14:48:34.699Z,57.25
2023-04-11T14:51:00.813Z,57.22
2023-04-11T14:53:27.006Z,57.29
2023-04-11T14:55:53.116Z,57.36
2023-04-11T14:58:19.226Z,57.40
2023-04-11T15:00:45.329Z,57.32
2023-04-11T15:03:11.521Z,57.48
2023-04-11T15:05:37.682Z,57.53
2023-04-11T15:08:03.777Z,57.46
2023-04-11T15:10:29.893Z,57.33
2023-04-11T15:12:55.977Z,57.36
2023-04-11T15:15:22.080Z,57.36
2023-04-11T15:17:48.239Z,57.36
2023-04-11T15:20:14.417Z,57.30
2023-04-11T15:22:41.512Z,57.34
2023-04-11T15:25:07.887Z,57.47
2023-04-11T15:27:34.009Z,57.42
2023-04-11T15:30:00.111Z,57.23
2023-04-11T15:32:26.286Z,57.39
2023-04-11T15:34:52.429Z,57.36
2023-04-11T15:37:18.527Z,57.35
2023-04-11T15:39:45.128Z,57.33
2023-04-11T15:42:11.232Z,57.48
2023-04-11T15:44:37.325Z,57.41
2023-04-11T15:47:03.561Z,57.48
2023-04-11T15:49:29.704Z,57.35
2023-04-11T15:51:55.809Z,57.33
2023-04-11T15:54:22.006Z,57.31
2023-04-11T15:56:48.097Z,57.50
2023-04-11T15:59:14.194Z,57.55
2023-04-11T16:01:40.618Z,57.55
2023-04-11T16:04:06.970Z,57.53
2023-04-11T16:06:33.170Z,57.39
2023-04-11T16:08:59.308Z,57.84
2023-04-11T16:11:25.400Z,57.82
2023-04-11T16:13:51.501Z,57.73
2023-04-11T16:16:17.650Z,57.80
2023-04-11T16:18:43.770Z,57.80
2023-04-11T16:21:09.854Z,57.85
2023-04-11T16:23:35.958Z,57.85
2023-04-11T16:26:02.057Z,57.81
2023-04-11T16:28:28.151Z,57.96
2023-04-11T16:30:55.531Z,58.10
2023-04-11T16:33:22.568Z,57.95
2023-04-11T16:35:48.770Z,57.95
2023-04-11T16:38:14.877Z,58.15
2023-04-11T16:40:40.969Z,58.00
2023-04-11T16:43:07.072Z,58.04
2023-04-11T16:45:33.298Z,57.99
2023-04-11T16:47:59.479Z,57.95
2023-04-11T16:50:25.614Z,58.10
2023-04-11T16:52:51.737Z,58.03
2023-04-11T16:55:17.827Z,58.19
2023-04-11T16:57:43.935Z,58.03
2023-04-11T17:00:10.033Z,58.03
2023-04-11T17:02:36.261Z,58.11
2023-04-11T17:05:02.435Z,58.03
2023-04-11T17:07:28.563Z,58.26
2023-04-11T17:09:54.656Z,58.16
2023-04-11T17:12:20.745Z,58.06
2023-04-11T17:14:46.856Z,58.08
2023-04-11T17:17:12.956Z,58.23
2023-04-11T17:19:39.051Z,58.09
2023-04-11T17:22:05.173Z,57.90
2023-04-11T17:24:31.323Z,58.03
2023-04-11T17:26:57.423Z,58.06
2023-04-11T17:29:23.689Z,58.16
2023-04-11T17:31:49.810Z,58.24
2023-04-11T17:34:15.925Z,58.16
2023-04-11T17:36:42.048Z,58.21
2023-04-11T17:39:08.153Z,58.10
2023-04-11T17:41:34.237Z,58.10
2023-04-11T17:44:00.475Z,58.02
2023-04-11T17:46:26.662Z,58.16
2023-04-11T17:48:52.831Z,58.27
2023-04-11T17:51:19.339Z,58.16
2023-04-11T17:53:45.432Z,58.14
2023-04-11T17:56:11.518Z,58.25
2023-04-11T17:58:37.637Z,58.35
2023-04-11T18:01:03.733Z,58.58
2023-04-11T18:03:29.981Z,58.44
2023-04-11T18:05:56.394Z,58.53
2023-04-11T18:08:32.246Z,58.50
2023-04-11T18:11:08.607Z,58.53
2023-04-11T18:13:34.709Z,58.33
2023-04-11T18:16:00.861Z,58.43
2023-04-11T18:18:26.990Z,58.40
2023-04-11T18:20:53.080Z,58.47
2023-04-11T18:23:19.185Z,58.47
2023-04-11T18:25:45.315Z,58.61
2023-04-11T18:28:11.401Z,58.50
2023-04-11T18:30:37.493Z,58.63
2023-04-11T18:33:03.633Z,58.59
2023-04-11T18:35:29.743Z,58.49
2023-04-11T18:37:55.904Z,58.42
2023-04-11T18:40:22.116Z,58.68
2023-04-11T18:42:48.886Z,58.76
2023-04-11T18:45:15.765Z,58.55
2023-04-11T18:47:42.038Z,58.64
2023-04-11T18:50:08.258Z,58.73
2023-04-11T18:55:00.545Z,58.70
2023-04-11T18:57:28.195Z,58.76
2023-04-11T18:59:56.956Z,58.65
2023-04-11T19:02:23.603Z,58.82
2023-04-11T19:04:50.874Z,58.85
2023-04-11T19:07:17.139Z,58.90
2023-04-11T19:09:43.248Z,58.78
2023-04-11T19:12:09.338Z,58.95
2023-04-11T19:14:35.489Z,58.85
2023-04-11T19:17:01.995Z,59.02
2023-04-11T19:19:28.140Z,59.09
2023-04-11T19:21:54.247Z,59.13
2023-04-11T19:24:20.362Z,59.07
2023-04-11T19:26:46.463Z,59.15
2023-04-11T19:29:12.600Z,58.94
2023-04-11T19:31:38.744Z,59.24
2023-04-11T19:34:04.892Z,59.03
2023-04-11T19:36:30.997Z,59.23
2023-04-11T19:38:57.752Z,59.19
2023-04-11T19:41:23.854Z,59.19
2023-04-11T19:43:49.946Z,59.14
2023-04-11T19:46:16.104Z,59.26
2023-04-11T19:48:42.254Z,59.22
2023-04-11T19:51:08.346Z,59.27
2023-04-11T19:53:34.523Z,59.05
2023-04-11T19:56:00.611Z,59.14
2023-04-11T19:58:26.707Z,59.37
2023-04-11T20:00:52.854Z,59.17
2023-04-11T20:03:19.194Z,59.28
2023-04-11T20:05:45.502Z,59.34
2023-04-11T20:08:11.626Z,59.27
2023-04-11T20:10:37.719Z,59.33
2023-04-11T20:13:03.821Z,59.31
2023-04-11T20:15:29.928Z,59.23
2023-04-11T20:17:56.056Z,59.21
2023-04-11T20:20:22.156Z,59.22
2023-04-11T20:22:48.270Z,59.50
2023-04-11T20:25:14.493Z,59.25
2023-04-11T20:27:40.695Z,59.32
2023-04-11T20:30:06.851Z,59.45
2023-04-11T20:32:33.011Z,59.29
2023-04-11T20:34:59.158Z,59.28
2023-04-11T20:37:25.277Z,59.30
2023-04-11T20:39:51.370Z,59.44
2023-04-11T20:42:17.521Z,59.46
2023-04-11T20:44:43.715Z,59.45
2023-04-11T20:47:09.876Z,59.18
2023-04-11T20:49:35.971Z,59.39
2023-04-11T20:52:02.093Z,59.30
2023-04-11T20:54:28.187Z,59.46
2023-04-11T20:56:54.294Z,59.47
2023-04-11T20:59:20.479Z,59.51
2023-04-11T21:01:46.655Z,59.37
2023-04-11T21:04:12.989Z,59.37
2023-04-11T21:06:39.208Z,59.45
2023-04-11T21:09:05.299Z,59.42
2023-04-11T21:11:31.396Z,59.53
2023-04-11T21:13:57.665Z,59.44
2023-04-11T21:16:24.041Z,59.40
2023-04-11T21:18:50.189Z,59.54
2023-04-11T21:21:16.382Z,59.50
2023-04-11T21:23:42.497Z,59.57
2023-04-11T21:26:08.592Z,59.57
2023-04-11T21:28:34.711Z,59.61
2023-04-11T21:31:00.814Z,59.56
2023-04-11T21:33:26.963Z,59.45
2023-04-11T21:35:53.345Z,59.44
2023-04-11T21:38:19.523Z,59.65
2023-04-11T21:40:45.624Z,59.54
2023-04-11T21:43:11.805Z,59.41
2023-04-11T21:45:37.898Z,59.39
2023-04-11T21:48:04.030Z,59.41
2023-04-11T21:50:30.165Z,59.53
2023-04-11T21:52:56.426Z,59.65
2023-04-11T21:55:22.529Z,59.50
2023-04-11T21:57:49.121Z,59.63
2023-04-11T22:00:15.224Z,59.44
2023-04-11T22:02:41.471Z,59.50
2023-04-11T22:05:08.078Z,59.63
2023-04-11T22:07:34.256Z,59.53
2023-04-11T22:10:00.363Z,59.65
2023-04-11T22:12:26.475Z,59.64
2023-04-11T22:14:52.574Z,59.35
2023-04-11T22:17:18.681Z,59.58
2023-04-11T22:19:44.794Z,59.60
2023-04-11T22:22:10.899Z,59.57
2023-04-11T22:24:37.001Z,59.64
2023-04-11T22:27:03.131Z,59.51
2023-04-11T22:29:29.245Z,59.47
2023-04-11T22:31:55.358Z,59.66
2023-04-11T22:34:21.506Z,59.64
2023-04-11T22:36:47.594Z,59.66
2023-04-11T22:39:13.705Z,59.75
2023-04-11T22:41:39.830Z,59.57
2023-04-11T22:44:05.917Z,59.58
2023-04-11T22:46:32.054Z,59.50
2023-04-11T22:48:58.175Z,59.75
2023-04-11T22:51:24.281Z,59.69
2023-04-11T22:53:50.369Z,59.75
2023-04-11T22:56:16.477Z,59.72
2023-04-11T22:58:42.568Z,59.81
2023-04-11T23:01:08.707Z,59.68
2023-04-11T23:03:34.881Z,59.58
2023-04-11T23:06:02.426Z,59.65
2023-04-11T23:08:28.508Z,59.70
2023-04-11T23:10:54.620Z,59.67
2023-04-11T23:13:20.716Z,59.62
2023-04-11T23:15:46.819Z,59.74
2023-04-11T23:18:12.963Z,59.67
2023-04-11T23:20:39.049Z,59.66
2023-04-11T23:23:05.151Z,59.59
2023-04-11T23:25:31.267Z,59.79
2023-04-11T23:27:57.356Z,59.79
2023-04-11T23:30:24.461Z,59.69
2023-04-11T23:32:50.584Z,59.70
2023-04-11T23:35:16.740Z,59.69
2023-04-11T23:37:42.877Z,59.63
2023-04-11T23:40:08.970Z,59.74
2023-04-11T23:42:35.071Z,59.86
2023-04-11T23:45:01.170Z,59.83
2023-04-11T23:47:27.342Z,59.68
2023-04-11T23:49:53.465Z,59.79
2023-04-11T23:52:19.623Z,59.68
2023-04-11T23:54:45.755Z,59.77
2023-04-11T23:57:11.872Z,59.87
2023-04-11T23:59:37.980Z,59.80
